createdAt,value
2019-05-03T00:00:27.415Z,10.28
2019-05-03T00:01:27.413Z,10.26
2019-05-03T00:02:27.438Z,10.29
2019-05-03T00:03:27.425Z,10.28
2019-05-03T00:04:27.443Z,10.24
2019-05-03T00:05:27.439Z,10.25
2019-05-03T00:06:27.447Z,10.26
2019-05-03T00:07:27.454Z,10.28
2019-05-03T00:08:27.461Z,10.31
2019-05-03T00:09:27.469Z,10.14
2019-05-03T00:10:27.472Z,10.20
2019-05-03T00:11:27.477Z,10.17
2019-05-03T00:12:27.480Z,10.18
2019-05-03T00:13:27.493Z,10.18
2019-05-03T00:14:27.493Z,10.20
2019-05-03T00:15:27.566Z,10.11
2019-05-03T00:16:27.510Z,10.10
2019-05-03T00:18:27.525Z,10.24
2019-05-03T00:19:27.529Z,10.29
2019-05-03T00:20:27.528Z,10.25
2019-05-03T00:21:27.539Z,10.31
2019-05-03T00:22:27.537Z,10.29
2019-05-03T00:23:27.548Z,10.26
2019-05-03T00:24:27.555Z,10.24
2019-05-03T00:25:27.578Z,10.24
2019-05-03T00:26:27.573Z,10.26
2019-05-03T00:27:27.586Z,10.26
2019-05-03T00:28:27.572Z,10.29
2019-05-03T00:29:27.613Z,10.24
2019-05-03T00:30:27.584Z,10.28
2019-05-03T00:31:27.593Z,10.25
2019-05-03T00:32:27.591Z,10.24
2019-05-03T00:33:27.608Z,10.22
2019-05-03T00:34:27.614Z,10.24
2019-05-03T00:35:27.619Z,10.28
2019-05-03T00:36:27.620Z,10.20
2019-05-03T00:37:27.622Z,10.26
2019-05-03T00:38:27.639Z,10.25
2019-05-03T00:39:27.650Z,10.28
2019-05-03T00:40:27.640Z,10.22
2019-05-03T00:41:27.650Z,10.25
2019-05-03T00:42:27.663Z,10.25
2019-05-03T00:43:27.667Z,10.31
2019-05-03T00:44:27.666Z,10.18
2019-05-03T00:45:27.672Z,10.17
2019-05-03T00:46:27.680Z,10.17
2019-05-03T00:47:27.682Z,10.11
2019-05-03T00:48:27.689Z,10.13
2019-05-03T00:49:27.699Z,10.02
2019-05-03T00:50:27.705Z,10.04
2019-05-03T00:51:27.708Z,10.11
2019-05-03T00:52:27.714Z,10.01
2019-05-03T00:53:27.717Z,10.04
2019-05-03T00:54:27.735Z,9.96
2019-05-03T00:55:27.728Z,9.98
2019-05-03T00:56:27.751Z,10.02
2019-05-03T00:57:27.813Z,9.99
2019-05-03T00:58:27.760Z,10.01
2019-05-03T00:59:27.750Z,10.09
2019-05-03T01:00:27.773Z,10.01
2019-05-03T01:01:27.776Z,10.10
2019-05-03T01:02:27.773Z,10.07
2019-05-03T01:03:27.783Z,10.11
2019-05-03T01:04:27.782Z,10.16
2019-05-03T01:05:27.792Z,10.18
2019-05-03T01:06:27.796Z,10.14
2019-05-03T01:07:27.801Z,10.07
2019-05-03T01:08:27.814Z,10.07
2019-05-03T01:09:27.813Z,10.10
2019-05-03T01:10:27.823Z,10.10
2019-05-03T01:11:27.823Z,10.18
2019-05-03T01:12:27.834Z,10.11
2019-05-03T01:13:27.840Z,10.16
2019-05-03T01:14:27.841Z,10.16
2019-05-03T01:15:27.851Z,10.11
2019-05-03T01:16:27.855Z,10.18
2019-05-03T01:17:27.951Z,10.10
2019-05-03T01:18:27.874Z,10.18
2019-05-03T01:19:27.878Z,10.11
2019-05-03T01:20:27.893Z,10.09
2019-05-03T01:21:27.888Z,10.04
2019-05-03T01:22:27.889Z,10.04
2019-05-03T01:23:27.894Z,9.96
2019-05-03T01:24:27.901Z,10.01
2019-05-03T01:25:32.316Z,9.91
2019-05-03T01:26:27.909Z,9.89
2019-05-03T01:27:28.003Z,9.91
2019-05-03T01:28:27.921Z,9.99
2019-05-03T01:29:27.931Z,9.95
2019-05-03T01:30:27.935Z,10.01
2019-05-03T01:31:27.938Z,10.02
2019-05-03T01:32:27.954Z,10.02
2019-05-03T01:33:27.956Z,10.06
2019-05-03T01:34:27.977Z,10.07
2019-05-03T01:35:27.961Z,10.02
2019-05-03T01:36:27.967Z,10.02
2019-05-03T01:37:27.972Z,10.07
2019-05-03T01:38:27.982Z,9.99
2019-05-03T01:39:27.986Z,9.93
2019-05-03T01:40:28.039Z,9.88
2019-05-03T01:41:28.006Z,9.96
2019-05-03T01:42:28.005Z,9.93
2019-05-03T01:43:28.008Z,9.98
2019-05-03T01:44:28.014Z,9.93
2019-05-03T01:45:28.021Z,9.89
2019-05-03T01:46:28.022Z,9.91
2019-05-03T01:47:28.038Z,9.92
2019-05-03T01:48:28.042Z,9.92
2019-05-03T01:49:28.044Z,9.92
2019-05-03T01:50:28.133Z,9.91
2019-05-03T01:52:28.063Z,9.93
2019-05-03T01:53:28.065Z,9.93
2019-05-03T01:54:28.070Z,9.92
2019-05-03T01:55:28.076Z,9.89
2019-05-03T01:56:28.096Z,9.88
2019-05-03T01:57:28.089Z,9.92
2019-05-03T01:58:28.098Z,9.96
2019-05-03T01:59:28.099Z,9.88
2019-05-03T02:00:28.107Z,9.98
2019-05-03T02:01:28.113Z,9.80
2019-05-03T02:02:28.120Z,9.96
2019-05-03T02:03:28.125Z,9.85
2019-05-03T02:04:28.134Z,9.95
2019-05-03T02:06:28.141Z,9.95
2019-05-03T02:07:28.135Z,9.95
2019-05-03T02:08:28.148Z,9.92
2019-05-03T02:09:28.158Z,9.83
2019-05-03T02:10:28.164Z,9.88
2019-05-03T02:11:28.169Z,9.89
2019-05-03T02:12:28.174Z,9.88
2019-05-03T02:13:28.178Z,9.83
2019-05-03T02:14:28.186Z,9.92
2019-05-03T02:15:28.176Z,9.88
2019-05-03T02:16:28.208Z,9.89
2019-05-03T02:17:28.209Z,9.88
2019-05-03T02:18:28.269Z,9.91
2019-05-03T02:19:28.212Z,9.91
2019-05-03T02:20:28.228Z,9.89
2019-05-03T02:21:28.224Z,9.85
2019-05-03T02:22:28.226Z,9.81
2019-05-03T02:23:28.232Z,9.85
2019-05-03T02:24:28.255Z,9.80
2019-05-03T02:25:28.250Z,9.85
2019-05-03T02:26:28.257Z,9.83
2019-05-03T02:27:28.256Z,9.83
2019-05-03T02:28:28.260Z,9.88
2019-05-03T02:29:28.270Z,9.85
2019-05-03T02:30:28.273Z,9.83
2019-05-03T02:31:28.289Z,9.86
2019-05-03T02:32:28.288Z,9.88
2019-05-03T02:33:28.296Z,9.74
2019-05-03T02:34:28.302Z,9.77
2019-05-03T02:35:28.313Z,9.91
2019-05-03T02:36:28.308Z,9.85
2019-05-03T02:37:28.313Z,9.85
2019-05-03T02:38:28.412Z,9.88
2019-05-03T02:39:28.321Z,9.88
2019-05-03T02:40:28.360Z,9.73
2019-05-03T02:41:28.409Z,9.74
2019-05-03T02:42:28.490Z,9.83
2019-05-03T02:43:28.517Z,9.86
2019-05-03T02:44:28.357Z,9.85
2019-05-03T02:45:28.383Z,9.75
2019-05-03T02:46:28.467Z,9.78
2019-05-03T02:47:28.473Z,9.89
2019-05-03T02:48:28.418Z,9.78
2019-05-03T02:49:28.380Z,9.83
2019-05-03T02:50:28.388Z,9.86
2019-05-03T02:51:28.417Z,9.71
2019-05-03T02:52:28.399Z,9.71
2019-05-03T02:53:28.405Z,9.75
2019-05-03T02:54:28.407Z,9.78
2019-05-03T02:55:28.421Z,9.77
2019-05-03T02:56:28.439Z,9.70
2019-05-03T02:57:28.452Z,9.78
2019-05-03T02:58:28.430Z,9.74
2019-05-03T02:59:28.437Z,9.78
2019-05-03T03:00:28.444Z,9.67
2019-05-03T03:01:28.456Z,9.68
2019-05-03T03:02:28.462Z,9.71
2019-05-03T03:03:28.458Z,9.62
2019-05-03T03:04:28.457Z,9.58
2019-05-03T03:05:28.474Z,9.70
2019-05-03T03:06:28.474Z,9.63
2019-05-03T03:07:28.486Z,9.62
2019-05-03T03:08:28.505Z,9.58
2019-05-03T03:09:28.493Z,9.55
2019-05-03T03:10:28.501Z,9.53
2019-05-03T03:11:28.509Z,9.49
2019-05-03T03:12:28.515Z,9.53
2019-05-03T03:13:28.535Z,9.41
2019-05-03T03:14:28.521Z,9.42
2019-05-03T03:15:28.524Z,9.40
2019-05-03T03:16:28.533Z,9.44
2019-05-03T03:17:28.541Z,9.41
2019-05-03T03:18:28.543Z,9.44
2019-05-03T03:19:28.551Z,9.48
2019-05-03T03:20:28.554Z,9.53
2019-05-03T03:21:28.562Z,9.45
2019-05-03T03:22:28.574Z,9.50
2019-05-03T03:23:28.687Z,9.48
2019-05-03T03:24:28.583Z,9.35
2019-05-03T03:25:28.584Z,9.38
2019-05-03T03:26:37.256Z,9.49
2019-05-03T03:27:28.593Z,9.48
2019-05-03T03:28:28.598Z,9.45
2019-05-03T05:23:05.782Z,9.63
2019-05-03T05:24:05.823Z,9.62
2019-05-03T05:25:05.682Z,9.59
2019-05-03T05:26:05.718Z,9.62
2019-05-03T05:27:05.701Z,9.70
2019-05-03T05:28:05.703Z,9.75
2019-05-03T05:29:05.712Z,9.77
2019-05-03T05:30:05.712Z,9.73
2019-05-03T05:31:05.723Z,9.75
2019-05-03T05:32:05.721Z,9.75
2019-05-03T05:33:05.730Z,9.75
2019-05-03T05:34:08.561Z,9.81
2019-05-03T05:35:05.734Z,9.68
2019-05-03T05:36:05.749Z,9.58
2019-05-03T05:38:05.761Z,9.60
2019-05-03T05:39:05.768Z,9.62
2019-05-03T05:40:05.776Z,9.74
2019-05-03T05:41:05.777Z,9.74
2019-05-03T05:42:05.787Z,9.88
2019-05-03T05:43:05.794Z,9.86
2019-05-03T05:44:05.799Z,9.89
2019-05-03T05:45:05.795Z,9.86
2019-05-03T05:46:05.807Z,9.73
2019-05-03T05:47:05.821Z,9.75
2019-05-03T05:48:05.823Z,9.88
2019-05-03T05:49:05.826Z,9.67
2019-05-03T05:50:05.835Z,9.62
2019-05-03T05:51:05.846Z,9.60
2019-05-03T05:52:05.845Z,9.62
2019-05-03T05:53:05.925Z,9.71
2019-05-03T05:54:05.864Z,9.60
2019-05-03T05:55:05.867Z,9.59
2019-05-03T05:56:05.872Z,9.73
2019-05-03T05:57:08.419Z,9.75
2019-05-03T05:58:08.152Z,9.77
2019-05-03T05:59:05.883Z,9.75
2019-05-03T06:00:05.902Z,9.74
2019-05-03T06:01:05.909Z,9.85
2019-05-03T06:02:05.917Z,9.91
2019-05-03T06:03:05.920Z,9.86
2019-05-03T06:04:05.927Z,9.89
2019-05-03T06:05:05.958Z,9.85
2019-05-03T06:06:05.948Z,9.89
2019-05-03T06:07:05.961Z,9.93
2019-05-03T06:08:05.959Z,9.91
2019-05-03T06:09:06.116Z,9.95
2019-05-03T06:10:05.983Z,10.17
2019-05-03T06:11:05.991Z,10.17
2019-05-03T06:12:05.996Z,10.31
2019-05-03T06:13:06.006Z,10.31
2019-05-03T06:14:06.016Z,10.29
2019-05-03T06:15:06.030Z,10.52
2019-05-03T06:16:06.039Z,10.49
2019-05-03T06:17:06.059Z,10.66
2019-05-03T06:18:06.054Z,10.72
2019-05-03T06:19:06.074Z,10.66
2019-05-03T06:20:06.073Z,10.58
2019-05-03T06:21:06.110Z,10.66
2019-05-03T06:22:06.094Z,10.63
2019-05-03T06:23:06.107Z,10.70
2019-05-03T06:24:06.116Z,10.68
2019-05-03T06:25:06.717Z,10.69
2019-05-03T06:26:06.134Z,10.69
2019-05-03T06:27:06.140Z,10.75
2019-05-03T06:28:17.759Z,10.75
2019-05-03T06:29:06.162Z,10.76
2019-05-03T06:30:06.162Z,10.95
2019-05-03T06:31:06.184Z,10.95
2019-05-03T06:32:06.192Z,10.87
2019-05-03T06:33:06.197Z,10.83
2019-05-03T06:34:06.212Z,11.03
2019-05-03T06:35:06.222Z,11.08
2019-05-03T06:36:06.230Z,11.05
2019-05-03T06:37:06.237Z,11.01
2019-05-03T06:38:06.247Z,11.02
2019-05-03T06:39:08.327Z,11.05
2019-05-03T06:40:06.322Z,10.95
2019-05-03T06:41:06.277Z,10.99
2019-05-03T06:42:10.045Z,11.03
2019-05-03T06:43:09.771Z,11.02
2019-05-03T06:44:06.304Z,10.99
2019-05-03T06:45:10.542Z,11.01
2019-05-03T06:46:06.322Z,11.13
2019-05-03T06:47:10.349Z,11.35
2019-05-03T06:48:06.347Z,11.28
2019-05-03T06:49:10.004Z,11.51
2019-05-03T06:50:06.370Z,11.66
2019-05-03T06:51:10.975Z,11.74
2019-05-03T06:52:06.393Z,11.63
2019-05-03T06:53:12.669Z,11.78
2019-05-03T06:54:06.435Z,11.75
2019-05-03T06:55:10.545Z,11.70
2019-05-03T06:56:06.436Z,11.77
2019-05-03T06:57:09.484Z,11.70
2019-05-03T06:58:06.471Z,11.64
2019-05-03T06:59:06.471Z,11.48
2019-05-03T07:00:06.484Z,11.19
2019-05-03T07:01:06.520Z,10.98
2019-05-03T07:02:06.504Z,11.06
2019-05-03T07:03:06.510Z,11.19
2019-05-03T07:04:06.523Z,11.24
2019-05-03T07:05:06.537Z,11.35
2019-05-03T07:06:06.543Z,11.28
2019-05-03T07:07:06.558Z,11.33
2019-05-03T07:08:06.560Z,11.45
2019-05-03T07:09:06.575Z,11.53
2019-05-03T07:10:06.582Z,11.39
2019-05-03T07:11:06.599Z,11.41
2019-05-03T07:12:06.604Z,11.49
2019-05-03T07:13:08.927Z,11.39
2019-05-03T07:14:06.628Z,11.41
2019-05-03T07:15:06.682Z,11.13
2019-05-03T07:16:06.650Z,11.06
2019-05-03T07:17:06.663Z,11.17
2019-05-03T07:18:06.666Z,11.19
2019-05-03T07:19:06.671Z,11.33
2019-05-03T07:20:06.686Z,11.41
2019-05-03T07:21:06.709Z,11.33
2019-05-03T07:22:06.703Z,11.39
2019-05-03T07:23:06.715Z,11.44
2019-05-03T07:24:06.721Z,11.45
2019-05-03T07:25:06.760Z,11.57
2019-05-03T07:27:06.757Z,11.64
2019-05-03T07:28:06.756Z,11.42
2019-05-03T07:29:06.771Z,11.26
2019-05-03T07:30:06.785Z,11.12
2019-05-03T07:31:06.783Z,11.12
2019-05-03T07:32:06.793Z,11.21
2019-05-03T07:33:06.834Z,11.11
2019-05-03T07:34:06.810Z,10.99
2019-05-03T07:35:06.815Z,11.23
2019-05-03T07:36:06.839Z,11.36
2019-05-03T07:37:06.838Z,11.53
2019-05-03T07:38:06.844Z,11.53
2019-05-03T07:39:06.848Z,11.53
2019-05-03T07:40:06.859Z,11.42
2019-05-03T07:41:06.869Z,11.27
2019-05-03T07:42:07.015Z,11.30
2019-05-03T07:43:06.884Z,11.30
2019-05-03T07:44:06.897Z,11.33
2019-05-03T07:46:06.904Z,11.44
2019-05-03T07:47:06.926Z,11.39
2019-05-03T07:48:06.920Z,11.30
2019-05-03T07:49:06.931Z,11.19
2019-05-03T07:50:06.941Z,11.35
2019-05-03T07:51:06.953Z,11.46
2019-05-03T07:52:06.955Z,11.93
2019-05-03T07:53:06.964Z,12.04
2019-05-03T07:54:06.997Z,12.30
2019-05-03T07:55:06.989Z,12.41
2019-05-03T07:56:06.998Z,12.70
2019-05-03T07:57:07.013Z,12.69
2019-05-03T07:58:07.029Z,12.80
2019-05-03T07:59:07.033Z,13.13
2019-05-03T08:00:07.081Z,13.06
2019-05-03T08:01:09.793Z,13.35
2019-05-03T08:02:07.069Z,13.46
2019-05-03T08:03:07.074Z,13.73
2019-05-03T08:04:07.098Z,13.53
2019-05-03T08:05:07.115Z,13.59
2019-05-03T08:06:07.140Z,13.55
2019-05-03T08:07:19.344Z,13.63
2019-05-03T08:08:07.154Z,13.66
2019-05-03T08:09:07.161Z,13.24
2019-05-03T08:10:07.172Z,13.13
2019-05-03T08:11:07.176Z,13.01
2019-05-03T08:12:07.192Z,12.77
2019-05-03T08:13:07.211Z,12.67
2019-05-03T08:14:07.217Z,12.63
2019-05-03T08:15:07.229Z,12.67
2019-05-03T08:16:07.242Z,12.61
2019-05-03T08:17:07.253Z,12.52
2019-05-03T08:19:07.275Z,12.74
2019-05-03T08:20:07.286Z,12.92
2019-05-03T08:21:07.291Z,13.12
2019-05-03T08:22:07.373Z,13.38
2019-05-03T08:23:07.320Z,13.32
2019-05-03T08:24:07.329Z,13.44
2019-05-03T08:25:07.358Z,13.75
2019-05-03T08:26:07.359Z,14.02
2019-05-03T08:27:07.379Z,14.21
2019-05-03T08:28:07.384Z,14.24
2019-05-03T08:29:16.149Z,13.81
2019-05-03T08:30:07.408Z,13.65
2019-05-03T08:31:08.381Z,13.53
2019-05-03T08:32:07.438Z,13.36
2019-05-03T08:33:07.451Z,13.07
2019-05-03T08:34:07.468Z,12.77
2019-05-03T08:35:07.478Z,12.62
2019-05-03T08:36:07.486Z,12.58
2019-05-03T08:37:07.501Z,12.69
2019-05-03T08:38:07.517Z,12.76
2019-05-03T08:39:07.542Z,12.67
2019-05-03T08:40:07.534Z,12.69
2019-05-03T08:41:07.548Z,12.76
2019-05-03T08:42:07.559Z,12.76
2019-05-03T08:43:07.569Z,12.95
2019-05-03T08:44:07.575Z,13.21
2019-05-03T08:45:08.145Z,13.39
2019-05-03T08:46:07.604Z,13.48
2019-05-03T08:47:07.614Z,13.35
2019-05-03T08:48:07.620Z,13.57
2019-05-03T08:49:07.640Z,13.68
2019-05-03T08:50:07.665Z,13.69
2019-05-03T08:51:07.662Z,13.72
2019-05-03T08:52:07.669Z,13.84
2019-05-03T08:53:07.691Z,13.99
2019-05-03T08:54:07.701Z,14.08
2019-05-03T08:55:07.730Z,14.24
2019-05-03T08:56:07.728Z,14.49
2019-05-03T08:57:07.745Z,14.69
2019-05-03T08:58:07.753Z,15.12
2019-05-03T08:59:07.774Z,15.23
2019-05-03T09:00:07.791Z,15.30
2019-05-03T09:01:07.796Z,15.20
2019-05-03T09:02:14.008Z,15.22
2019-05-03T09:03:07.826Z,14.95
2019-05-03T09:04:07.838Z,14.69
2019-05-03T09:05:07.855Z,14.38
2019-05-03T09:06:07.864Z,14.17
2019-05-03T09:07:07.978Z,13.94
2019-05-03T09:08:07.893Z,13.81
2019-05-03T09:09:07.903Z,13.39
2019-05-03T09:10:12.238Z,13.43
2019-05-03T09:11:07.931Z,13.36
2019-05-03T09:12:07.934Z,13.38
2019-05-03T09:13:07.970Z,13.39
2019-05-03T09:14:07.953Z,13.28
2019-05-03T09:15:07.968Z,13.19
2019-05-03T09:16:08.023Z,13.01
2019-05-03T09:17:07.991Z,13.13
2019-05-03T09:18:07.996Z,12.94
2019-05-03T09:19:08.026Z,13.39
2019-05-03T09:20:08.034Z,13.94
2019-05-03T09:21:08.043Z,14.45
2019-05-03T09:22:08.062Z,14.48
2019-05-03T09:23:08.059Z,14.30
2019-05-03T09:24:08.068Z,14.34
2019-05-03T09:25:08.075Z,14.41
2019-05-03T09:26:08.119Z,14.41
2019-05-03T09:27:08.103Z,14.19
2019-05-03T09:28:08.118Z,14.05
2019-05-03T09:29:08.126Z,14.08
2019-05-03T09:30:08.153Z,14.06
2019-05-03T09:31:08.163Z,14.12
2019-05-03T09:32:08.166Z,14.12
2019-05-03T09:33:09.214Z,13.93
2019-05-03T09:34:08.429Z,14.19
2019-05-03T09:35:08.204Z,14.35
2019-05-03T09:36:08.277Z,14.41
2019-05-03T09:37:08.240Z,14.34
2019-05-03T09:38:08.237Z,14.16
2019-05-03T09:39:08.245Z,14.13
2019-05-03T09:40:08.256Z,14.34
2019-05-03T09:41:08.270Z,14.36
2019-05-03T09:42:08.281Z,14.39
2019-05-03T09:43:08.288Z,13.88
2019-05-03T09:44:08.908Z,13.46
2019-05-03T09:45:08.318Z,13.21
2019-05-03T09:46:08.325Z,13.04
2019-05-03T09:47:08.332Z,12.73
2019-05-03T09:48:08.346Z,12.66
2019-05-03T09:49:13.294Z,12.67
2019-05-03T09:50:08.370Z,12.67
2019-05-03T09:51:08.378Z,12.85
2019-05-03T09:52:08.732Z,13.39
2019-05-03T09:53:09.105Z,13.47
2019-05-03T09:54:08.414Z,13.65
2019-05-03T09:55:08.420Z,13.94
2019-05-03T09:56:08.533Z,14.38
2019-05-03T09:57:08.460Z,14.53
2019-05-03T09:58:08.456Z,14.63
2019-05-03T09:59:08.467Z,14.83
2019-05-03T10:00:08.475Z,14.74
2019-05-03T10:01:08.722Z,14.36
2019-05-03T10:02:08.512Z,14.06
2019-05-03T10:03:08.521Z,13.93
2019-05-03T10:04:08.529Z,13.75
2019-05-03T10:05:08.535Z,13.79
2019-05-03T10:06:08.560Z,13.79
2019-05-03T10:07:08.564Z,13.75
2019-05-03T10:08:08.578Z,13.73
2019-05-03T10:09:08.578Z,13.76
2019-05-03T10:10:08.583Z,13.81
2019-05-03T10:11:08.602Z,13.81
2019-05-03T10:12:08.617Z,13.86
2019-05-03T10:13:14.442Z,13.80
2019-05-03T10:14:08.623Z,14.34
2019-05-03T10:15:08.647Z,14.39
2019-05-03T10:16:08.663Z,14.79
2019-05-03T10:17:08.744Z,15.07
2019-05-03T10:18:10.941Z,15.53
2019-05-03T10:19:08.685Z,15.81
2019-05-03T10:20:08.704Z,15.53
2019-05-03T10:21:08.711Z,15.78
2019-05-03T10:22:08.738Z,15.86
2019-05-03T10:23:08.743Z,15.85
2019-05-03T10:24:08.752Z,15.62
2019-05-03T10:25:08.767Z,15.58
2019-05-03T10:26:08.780Z,16.11
2019-05-03T10:27:09.486Z,16.67
2019-05-03T10:28:08.827Z,17.17
2019-05-03T10:29:08.842Z,17.10
2019-05-03T10:30:12.973Z,16.88
2019-05-03T10:31:08.861Z,16.34
2019-05-03T10:32:08.864Z,16.26
2019-05-03T10:33:08.892Z,15.99
2019-05-03T10:34:08.903Z,15.76
2019-05-03T10:35:08.909Z,15.53
2019-05-03T10:36:08.923Z,15.27
2019-05-03T10:37:08.937Z,15.03
2019-05-03T10:38:08.960Z,14.69
2019-05-03T10:39:08.968Z,14.44
2019-05-03T10:40:08.981Z,14.44
2019-05-03T10:41:08.985Z,14.26
2019-05-03T10:42:08.998Z,14.21
2019-05-03T10:43:09.020Z,14.21
2019-05-03T10:44:09.019Z,14.04
2019-05-03T10:45:09.047Z,13.81
2019-05-03T10:46:09.042Z,13.51
2019-05-03T10:47:09.064Z,13.09
2019-05-03T10:48:09.068Z,13.07
2019-05-03T10:49:09.087Z,13.35
2019-05-03T10:50:09.121Z,13.54
2019-05-03T10:51:09.101Z,13.76
2019-05-03T10:52:09.114Z,13.94
2019-05-03T10:53:09.138Z,14.12
2019-05-03T10:54:09.132Z,14.26
2019-05-03T10:55:09.145Z,14.21
2019-05-03T10:56:09.157Z,14.31
2019-05-03T10:57:09.159Z,14.35
2019-05-03T10:58:09.184Z,15.13
2019-05-03T10:59:09.182Z,15.80
2019-05-03T11:00:09.200Z,16.36
2019-05-03T11:01:09.213Z,16.55
2019-05-03T11:02:09.216Z,16.98
2019-05-03T11:03:09.230Z,16.90
2019-05-03T11:04:09.250Z,16.41
2019-05-03T11:05:09.274Z,16.06
2019-05-03T11:06:09.260Z,15.64
2019-05-03T11:07:09.292Z,16.08
2019-05-03T11:08:09.288Z,16.70
2019-05-03T11:09:09.304Z,16.73
2019-05-03T11:10:09.326Z,16.45
2019-05-03T11:11:09.325Z,16.14
2019-05-03T11:12:09.336Z,15.86
2019-05-03T11:13:09.355Z,15.46
2019-05-03T11:14:09.365Z,14.94
2019-05-03T11:15:09.422Z,14.57
2019-05-03T11:16:09.387Z,14.44
2019-05-03T11:17:09.397Z,14.23
2019-05-03T11:18:09.421Z,14.20
2019-05-03T11:19:09.431Z,14.19
2019-05-03T11:20:09.443Z,14.11
2019-05-03T11:21:09.449Z,14.16
2019-05-03T11:22:09.568Z,14.30
2019-05-03T11:23:09.488Z,14.39
2019-05-03T11:24:09.477Z,14.16
2019-05-03T11:25:09.493Z,14.12
2019-05-03T11:26:09.504Z,14.11
2019-05-03T11:27:09.513Z,13.99
2019-05-03T11:28:09.529Z,13.75
2019-05-03T11:29:09.548Z,13.83
2019-05-03T11:30:09.922Z,13.75
2019-05-03T11:31:09.578Z,13.76
2019-05-03T11:32:11.003Z,13.71
2019-05-03T11:33:09.577Z,13.84
2019-05-03T11:34:09.617Z,14.08
2019-05-03T11:35:11.690Z,14.69
2019-05-03T11:36:09.600Z,15.09
2019-05-03T11:37:09.622Z,14.91
2019-05-03T11:38:09.631Z,15.64
2019-05-03T11:39:09.644Z,16.45
2019-05-03T11:40:09.658Z,16.98
2019-05-03T11:41:09.687Z,17.07
2019-05-03T11:42:09.683Z,17.45
2019-05-03T11:43:09.696Z,17.80
2019-05-03T11:44:09.703Z,18.17
2019-05-03T11:45:09.714Z,19.09
2019-05-03T11:46:09.732Z,19.31
2019-05-03T11:47:09.820Z,19.06
2019-05-03T11:48:09.755Z,18.51
2019-05-03T11:49:09.790Z,18.23
2019-05-03T11:50:09.801Z,17.73
2019-05-03T11:51:09.854Z,17.09
2019-05-03T11:52:09.804Z,16.08
2019-05-03T11:53:09.827Z,15.78
2019-05-03T11:54:09.838Z,15.78
2019-05-03T11:55:11.850Z,15.31
2019-05-03T11:56:09.876Z,15.43
2019-05-03T11:57:09.957Z,15.92
2019-05-03T11:59:09.892Z,18.01
2019-05-03T12:00:09.907Z,19.09
2019-05-03T12:01:15.828Z,20.30
2019-05-03T12:02:09.946Z,21.19
2019-05-03T12:03:09.948Z,20.83
2019-05-03T12:04:09.950Z,19.78
2019-05-03T12:05:10.004Z,18.97
2019-05-03T12:06:09.986Z,19.12
2019-05-03T12:07:10.005Z,19.31
2019-05-03T12:08:10.015Z,20.12
2019-05-03T12:09:10.031Z,21.34
2019-05-03T12:10:26.569Z,21.71
2019-05-03T12:11:10.054Z,21.82
2019-05-03T12:12:10.083Z,21.31
2019-05-03T12:13:10.082Z,20.94
2019-05-03T12:14:10.103Z,20.82
2019-05-03T12:15:10.134Z,20.98
2019-05-03T12:16:18.044Z,21.37
2019-05-03T12:17:19.522Z,21.00
2019-05-03T12:18:10.776Z,19.82
2019-05-03T12:19:16.910Z,18.75
2019-05-03T12:20:11.687Z,17.40
2019-05-03T12:21:11.504Z,16.34
2019-05-03T12:22:10.866Z,16.13
2019-05-03T12:23:10.843Z,16.33
2019-05-03T12:24:10.803Z,15.88
2019-05-03T12:25:11.376Z,15.92
2019-05-03T12:26:13.422Z,16.04
2019-05-03T12:27:10.290Z,16.90
2019-05-03T12:28:10.305Z,17.53
2019-05-03T12:29:10.318Z,17.99
2019-05-03T12:30:10.336Z,18.28
2019-05-03T12:31:25.912Z,18.31
2019-05-03T12:32:10.364Z,19.10
2019-05-03T12:33:10.380Z,19.24
2019-05-03T12:34:10.390Z,18.17
2019-05-03T12:35:10.417Z,16.67
2019-05-03T12:36:10.420Z,16.50
2019-05-03T12:37:10.443Z,16.99
2019-05-03T12:38:10.447Z,18.60
2019-05-03T12:39:24.087Z,19.70
2019-05-03T12:40:10.488Z,19.98
2019-05-03T12:41:10.508Z,19.38
2019-05-03T12:42:10.504Z,18.47
2019-05-03T12:43:10.524Z,18.28
2019-05-03T12:45:10.559Z,16.95
2019-05-03T12:46:10.566Z,16.73
2019-05-03T12:47:10.590Z,16.50
2019-05-03T12:48:10.688Z,16.33
2019-05-03T12:49:10.608Z,16.30
2019-05-03T12:50:10.621Z,16.48
2019-05-03T12:51:11.005Z,16.34
2019-05-03T12:52:11.236Z,16.44
2019-05-03T12:53:10.653Z,16.70
2019-05-03T12:54:10.668Z,17.99
2019-05-03T12:55:10.786Z,17.14
2019-05-03T12:56:13.338Z,16.54
2019-05-03T12:57:10.709Z,16.16
2019-05-03T12:58:10.736Z,16.17
2019-05-03T12:59:10.733Z,16.26
2019-05-03T13:00:10.748Z,16.23
2019-05-03T13:01:10.762Z,16.04
2019-05-03T13:02:10.764Z,15.78
2019-05-03T13:03:10.803Z,15.35
2019-05-03T13:04:10.792Z,14.97
2019-05-03T13:05:10.891Z,14.53
2019-05-03T13:06:10.820Z,14.27
2019-05-03T13:07:10.828Z,14.16
2019-05-03T13:08:10.851Z,14.27
2019-05-03T13:09:10.854Z,14.24
2019-05-03T13:10:10.863Z,14.31
2019-05-03T13:11:10.875Z,14.64
2019-05-03T13:12:11.024Z,15.12
2019-05-03T13:13:10.892Z,16.29
2019-05-03T13:14:10.912Z,17.21
2019-05-03T13:15:10.918Z,18.26
2019-05-03T13:16:10.926Z,17.86
2019-05-03T13:17:11.371Z,17.46
2019-05-03T13:18:10.955Z,16.92
2019-05-03T13:19:10.970Z,16.17
2019-05-03T13:20:10.980Z,15.51
2019-05-03T13:21:10.985Z,15.25
2019-05-03T13:22:11.110Z,15.11
2019-05-03T13:23:12.917Z,15.74
2019-05-03T13:24:22.473Z,17.32
2019-05-03T13:25:11.040Z,18.19
2019-05-03T13:26:11.048Z,17.92
2019-05-03T13:27:11.069Z,18.01
2019-05-03T13:28:11.073Z,18.39
2019-05-03T13:29:11.097Z,18.36
2019-05-03T13:30:11.099Z,18.78
2019-05-03T13:31:11.115Z,18.51
2019-05-03T13:32:11.123Z,18.07
2019-05-03T13:33:11.135Z,18.66
2019-05-03T13:34:11.150Z,18.86
2019-05-03T13:35:11.158Z,18.99
2019-05-03T13:36:11.190Z,18.90
2019-05-03T13:37:11.189Z,17.47
2019-05-03T13:38:11.209Z,16.55
2019-05-03T13:39:14.475Z,16.10
2019-05-03T13:40:11.307Z,15.98
2019-05-03T13:41:11.254Z,15.60
2019-05-03T13:42:11.256Z,15.71
2019-05-03T13:43:11.268Z,15.59
2019-05-03T13:45:11.292Z,16.08
2019-05-03T13:46:11.307Z,16.08
2019-05-03T13:47:11.331Z,16.14
2019-05-03T13:48:12.349Z,15.76
2019-05-03T13:49:11.341Z,15.76
2019-05-03T13:50:11.360Z,15.60
2019-05-03T13:51:11.364Z,15.37
2019-05-03T13:52:11.392Z,14.86
2019-05-03T13:53:11.387Z,14.82
2019-05-03T13:54:11.399Z,14.61
2019-05-03T13:55:11.412Z,14.45
2019-05-03T13:56:11.453Z,14.20
2019-05-03T13:57:11.456Z,14.12
2019-05-03T13:58:11.467Z,14.09
2019-05-03T13:59:18.778Z,14.08
2019-05-03T14:00:11.479Z,14.11
2019-05-03T14:01:11.483Z,14.31
2019-05-03T14:03:11.505Z,14.60
2019-05-03T14:04:11.618Z,14.44
2019-05-03T14:05:11.509Z,14.54
2019-05-03T14:06:11.526Z,15.34
2019-05-03T14:07:11.549Z,15.88
2019-05-03T14:08:11.532Z,16.92
2019-05-03T14:09:11.568Z,17.79
2019-05-03T14:10:11.562Z,18.57
2019-05-03T14:11:11.577Z,19.53
2019-05-03T14:12:11.612Z,20.46
2019-05-03T14:13:11.595Z,20.31
2019-05-03T14:14:11.606Z,20.12
2019-05-03T14:15:11.634Z,20.08
2019-05-03T14:16:11.651Z,20.20
2019-05-03T14:17:11.656Z,20.82
2019-05-03T14:18:11.674Z,21.27
2019-05-03T14:19:11.682Z,20.87
2019-05-03T14:20:11.698Z,19.57
2019-05-03T14:21:11.716Z,18.84
2019-05-03T14:22:11.719Z,18.69
2019-05-03T14:23:11.739Z,18.20
2019-05-03T14:24:11.767Z,18.10
2019-05-03T14:25:11.768Z,17.84
2019-05-03T14:26:11.774Z,17.43
2019-05-03T14:27:11.786Z,17.24
2019-05-03T14:28:11.793Z,16.78
2019-05-03T14:29:11.809Z,16.41
2019-05-03T14:30:11.817Z,16.08
2019-05-03T14:31:11.824Z,15.88
2019-05-03T14:32:24.751Z,15.85
2019-05-03T14:33:11.868Z,16.66
2019-05-03T14:34:11.894Z,16.63
2019-05-03T14:35:11.901Z,16.51
2019-05-03T14:36:11.895Z,16.37
2019-05-03T14:37:11.910Z,16.14
2019-05-03T14:38:11.929Z,15.77
2019-05-03T14:39:11.931Z,16.40
2019-05-03T14:40:14.503Z,16.72
2019-05-03T14:41:11.953Z,16.84
2019-05-03T14:42:11.959Z,17.15
2019-05-03T14:43:11.977Z,17.68
2019-05-03T14:44:14.774Z,17.94
2019-05-03T14:45:12.007Z,17.96
2019-05-03T14:46:12.087Z,17.51
2019-05-03T14:47:12.026Z,17.36
2019-05-03T14:48:12.035Z,17.10
2019-05-03T14:49:12.046Z,16.47
2019-05-03T14:50:12.057Z,16.33
2019-05-03T14:51:12.273Z,16.37
2019-05-03T14:52:12.077Z,16.54
2019-05-03T14:53:12.083Z,16.67
2019-05-03T14:54:12.095Z,16.85
2019-05-03T14:55:12.119Z,16.72
2019-05-03T14:56:12.125Z,16.51
2019-05-03T14:57:12.157Z,16.27
2019-05-03T14:58:12.163Z,15.91
2019-05-03T14:59:12.166Z,15.64
2019-05-03T15:00:12.178Z,15.51
2019-05-03T15:01:12.184Z,15.46
2019-05-03T15:02:12.197Z,15.53